sensor_id;sensor_type;location;lat;lon;timestamp;P1;durP1;ratioP1;P2;durP2;ratioP2
74614;SDS011;63121;51.458;-0.110;2023-06-22T00:01:08;9.83;;;3.40;;
74614;SDS011;63121;51.458;-0.110;2023-06-22T00:03:33;10.27;;;3.17;;
74614;SDS011;63121;51.458;-0.110;2023-06-22T00:05:59;8.48;;;3.10;;
74614;SDS011;63121;51.458;-0.110;2023-06-22T00:08:24;9.37;;;3.20;;
74614;SDS011;63121;51.458;-0.110;2023-06-22T00:10:49;7.88;;;3.45;;
74614;SDS011;63121;51.458;-0.110;2023-06-22T00:13:15;10.32;;;3.67;;
74614;SDS011;63121;51.458;-0.110;2023-06-22T00:15:41;9.10;;;3.20;;
74614;SDS011;63121;51.458;-0.110;2023-06-22T00:18:07;11.40;;;3.28;;
74614;SDS011;63121;51.458;-0.110;2023-06-22T00:20:33;8.70;;;3.50;;
74614;SDS011;63121;51.458;-0.110;2023-06-22T00:23:01;9.18;;;3.35;;
74614;SDS011;63121;51.458;-0.110;2023-06-22T00:25:27;9.55;;;3.38;;
74614;SDS011;63121;51.458;-0.110;2023-06-22T00:27:52;10.00;;;3.70;;
74614;SDS011;63121;51.458;-0.110;2023-06-22T00:30:18;10.87;;;3.60;;
74614;SDS011;63121;51.458;-0.110;2023-06-22T00:32:44;9.70;;;3.67;;
74614;SDS011;63121;51.458;-0.110;2023-06-22T00:35:11;8.30;;;3.58;;
74614;SDS011;63121;51.458;-0.110;2023-06-22T00:37:38;10.65;;;4.20;;
74614;SDS011;63121;51.458;-0.110;2023-06-22T00:40:07;10.20;;;3.65;;
74614;SDS011;63121;51.458;-0.110;2023-06-22T00:42:33;9.18;;;3.88;;
74614;SDS011;63121;51.458;-0.110;2023-06-22T00:44:59;11.50;;;3.77;;
74614;SDS011;63121;51.458;-0.110;2023-06-22T00:47:24;12.10;;;5.23;;
74614;SDS011;63121;51.458;-0.110;2023-06-22T00:49:50;12.13;;;4.50;;
74614;SDS011;63121;51.458;-0.110;2023-06-22T00:52:19;9.27;;;4.18;;
74614;SDS011;63121;51.458;-0.110;2023-06-22T00:54:49;10.20;;;3.50;;
74614;SDS011;63121;51.458;-0.110;2023-06-22T00:57:16;10.27;;;3.65;;
74614;SDS011;63121;51.458;-0.110;2023-06-22T00:59:42;11.70;;;4.35;;
74614;SDS011;63121;51.458;-0.110;2023-06-22T01:02:09;11.18;;;4.43;;
74614;SDS011;63121;51.458;-0.110;2023-06-22T01:04:35;8.02;;;3.42;;
74614;SDS011;63121;51.458;-0.110;2023-06-22T01:10:12;8.75;;;3.28;;
74614;SDS011;63121;51.458;-0.110;2023-06-22T01:12:53;10.75;;;3.78;;
74614;SDS011;63121;51.458;-0.110;2023-06-22T01:18:24;8.15;;;3.45;;
74614;SDS011;63121;51.458;-0.110;2023-06-22T01:20:53;12.52;;;4.88;;
74614;SDS011;63121;51.458;-0.110;2023-06-22T01:26:08;10.18;;;4.15;;
74614;SDS011;63121;51.458;-0.110;2023-06-22T01:28:50;9.38;;;3.60;;
74614;SDS011;63121;51.458;-0.110;2023-06-22T01:31:18;8.43;;;3.67;;
74614;SDS011;63121;51.458;-0.110;2023-06-22T01:33:48;9.90;;;3.40;;
74614;SDS011;63121;51.458;-0.110;2023-06-22T01:36:18;9.70;;;3.58;;
74614;SDS011;63121;51.458;-0.110;2023-06-22T01:38:44;9.95;;;3.60;;
74614;SDS011;63121;51.458;-0.110;2023-06-22T01:41:12;9.18;;;3.60;;
74614;SDS011;63121;51.458;-0.110;2023-06-22T01:43:37;10.95;;;4.22;;
74614;SDS011;63121;51.458;-0.110;2023-06-22T01:46:03;10.38;;;4.13;;
74614;SDS011;63121;51.458;-0.110;2023-06-22T01:48:29;11.32;;;4.05;;
74614;SDS011;63121;51.458;-0.110;2023-06-22T01:50:55;8.90;;;3.88;;
74614;SDS011;63121;51.458;-0.110;2023-06-22T01:53:24;9.60;;;3.70;;
74614;SDS011;63121;51.458;-0.110;2023-06-22T01:55:49;9.57;;;3.58;;
74614;SDS011;63121;51.458;-0.110;2023-06-22T01:58:15;12.05;;;4.05;;
74614;SDS011;63121;51.458;-0.110;2023-06-22T02:00:42;11.13;;;3.67;;
74614;SDS011;63121;51.458;-0.110;2023-06-22T02:03:13;9.20;;;3.72;;
74614;SDS011;63121;51.458;-0.110;2023-06-22T02:05:46;8.30;;;3.60;;
74614;SDS011;63121;51.458;-0.110;2023-06-22T02:08:22;11.63;;;3.58;;
74614;SDS011;63121;51.458;-0.110;2023-06-22T02:10:50;12.18;;;4.10;;
74614;SDS011;63121;51.458;-0.110;2023-06-22T02:13:18;9.45;;;3.55;;
74614;SDS011;63121;51.458;-0.110;2023-06-22T02:15:44;9.10;;;3.58;;
74614;SDS011;63121;51.458;-0.110;2023-06-22T02:18:10;10.95;;;4.15;;
74614;SDS011;63121;51.458;-0.110;2023-06-22T02:20:37;9.57;;;4.00;;
74614;SDS011;63121;51.458;-0.110;2023-06-22T02:23:03;9.85;;;4.00;;
74614;SDS011;63121;51.458;-0.110;2023-06-22T02:25:28;9.90;;;4.05;;
74614;SDS011;63121;51.458;-0.110;2023-06-22T02:27:53;9.27;;;3.60;;
74614;SDS011;63121;51.458;-0.110;2023-06-22T02:30:19;11.00;;;3.77;;
74614;SDS011;63121;51.458;-0.110;2023-06-22T02:32:44;10.13;;;4.22;;
74614;SDS011;63121;51.458;-0.110;2023-06-22T02:35:09;10.73;;;3.70;;
74614;SDS011;63121;51.458;-0.110;2023-06-22T02:37:35;10.57;;;3.78;;
74614;SDS011;63121;51.458;-0.110;2023-06-22T02:40:04;9.10;;;3.83;;
74614;SDS011;63121;51.458;-0.110;2023-06-22T02:42:32;10.52;;;4.10;;
74614;SDS011;63121;51.458;-0.110;2023-06-22T02:44:57;10.40;;;3.95;;
74614;SDS011;63121;51.458;-0.110;2023-06-22T02:47:23;8.87;;;3.80;;
74614;SDS011;63121;51.458;-0.110;2023-06-22T02:49:48;13.05;;;4.53;;
74614;SDS011;63121;51.458;-0.110;2023-06-22T02:52:13;9.05;;;3.90;;
74614;SDS011;63121;51.458;-0.110;2023-06-22T02:54:39;10.33;;;4.07;;
74614;SDS011;63121;51.458;-0.110;2023-06-22T02:57:04;9.90;;;3.87;;
74614;SDS011;63121;51.458;-0.110;2023-06-22T02:59:30;8.88;;;3.80;;
74614;SDS011;63121;51.458;-0.110;2023-06-22T03:01:55;10.87;;;4.23;;
74614;SDS011;63121;51.458;-0.110;2023-06-22T03:04:20;11.75;;;4.00;;
74614;SDS011;63121;51.458;-0.110;2023-06-22T03:06:46;10.40;;;4.18;;
74614;SDS011;63121;51.458;-0.110;2023-06-22T03:09:16;11.95;;;4.80;;
74614;SDS011;63121;51.458;-0.110;2023-06-22T03:11:41;8.35;;;3.72;;
74614;SDS011;63121;51.458;-0.110;2023-06-22T03:14:07;8.93;;;3.83;;
74614;SDS011;63121;51.458;-0.110;2023-06-22T03:16:32;10.33;;;4.07;;
74614;SDS011;63121;51.458;-0.110;2023-06-22T03:18:58;11.30;;;3.90;;
74614;SDS011;63121;51.458;-0.110;2023-06-22T03:21:26;9.15;;;3.50;;
74614;SDS011;63121;51.458;-0.110;2023-06-22T03:23:53;9.05;;;3.80;;
74614;SDS011;63121;51.458;-0.110;2023-06-22T03:26:18;10.48;;;4.40;;
74614;SDS011;63121;51.458;-0.110;2023-06-22T03:28:44;11.75;;;4.57;;
74614;SDS011;63121;51.458;-0.110;2023-06-22T03:31:09;11.03;;;4.60;;
74614;SDS011;63121;51.458;-0.110;2023-06-22T03:33:34;10.93;;;4.35;;
74614;SDS011;63121;51.458;-0.110;2023-06-22T03:36:00;10.83;;;4.20;;
74614;SDS011;63121;51.458;-0.110;2023-06-22T03:38:25;9.05;;;4.38;;
74614;SDS011;63121;51.458;-0.110;2023-06-22T03:40:51;9.63;;;4.15;;
74614;SDS011;63121;51.458;-0.110;2023-06-22T03:43:16;11.82;;;4.47;;
74614;SDS011;63121;51.458;-0.110;2023-06-22T03:45:41;9.97;;;4.03;;
74614;SDS011;63121;51.458;-0.110;2023-06-22T03:48:07;9.40;;;4.05;;
74614;SDS011;63121;51.458;-0.110;2023-06-22T03:50:32;10.87;;;4.13;;
74614;SDS011;63121;51.458;-0.110;2023-06-22T03:52:57;10.80;;;4.20;;
74614;SDS011;63121;51.458;-0.110;2023-06-22T03:55:23;10.52;;;3.88;;
74614;SDS011;63121;51.458;-0.110;2023-06-22T03:57:48;11.13;;;3.90;;
74614;SDS011;63121;51.458;-0.110;2023-06-22T04:00:14;10.77;;;4.03;;
74614;SDS011;63121;51.458;-0.110;2023-06-22T04:05:06;10.73;;;4.28;;
74614;SDS011;63121;51.458;-0.110;2023-06-22T04:07:31;10.68;;;4.43;;
74614;SDS011;63121;51.458;-0.110;2023-06-22T04:09:57;13.68;;;4.20;;
74614;SDS011;63121;51.458;-0.110;2023-06-22T04:12:22;10.70;;;4.23;;
74614;SDS011;63121;51.458;-0.110;2023-06-22T04:14:47;11.27;;;4.80;;
74614;SDS011;63121;51.458;-0.110;2023-06-22T04:17:13;11.87;;;3.77;;
74614;SDS011;63121;51.458;-0.110;2023-06-22T04:19:39;11.10;;;4.55;;
74614;SDS011;63121;51.458;-0.110;2023-06-22T04:22:05;9.55;;;4.30;;
74614;SDS011;63121;51.458;-0.110;2023-06-22T04:24:32;10.80;;;4.18;;
74614;SDS011;63121;51.458;-0.110;2023-06-22T04:26:58;11.32;;;4.63;;
74614;SDS011;63121;51.458;-0.110;2023-06-22T04:29:27;12.73;;;4.63;;
74614;SDS011;63121;51.458;-0.110;2023-06-22T04:31:55;9.93;;;4.13;;
74614;SDS011;63121;51.458;-0.110;2023-06-22T04:34:28;12.98;;;4.43;;
74614;SDS011;63121;51.458;-0.110;2023-06-22T04:36:54;9.60;;;4.28;;
74614;SDS011;63121;51.458;-0.110;2023-06-22T04:39:20;10.77;;;4.32;;
74614;SDS011;63121;51.458;-0.110;2023-06-22T04:41:45;10.30;;;4.53;;
74614;SDS011;63121;51.458;-0.110;2023-06-22T04:44:15;11.43;;;4.40;;
74614;SDS011;63121;51.458;-0.110;2023-06-22T04:46:51;9.85;;;4.45;;
74614;SDS011;63121;51.458;-0.110;2023-06-22T04:49:25;11.30;;;4.30;;
74614;SDS011;63121;51.458;-0.110;2023-06-22T04:51:58;10.35;;;4.55;;
74614;SDS011;63121;51.458;-0.110;2023-06-22T04:54:23;11.23;;;4.05;;
74614;SDS011;63121;51.458;-0.110;2023-06-22T04:56:49;9.45;;;4.30;;
74614;SDS011;63121;51.458;-0.110;2023-06-22T04:59:21;9.55;;;4.22;;
74614;SDS011;63121;51.458;-0.110;2023-06-22T05:01:47;10.02;;;4.38;;
74614;SDS011;63121;51.458;-0.110;2023-06-22T05:04:12;11.07;;;4.63;;
74614;SDS011;63121;51.458;-0.110;2023-06-22T05:06:38;11.57;;;4.87;;
74614;SDS011;63121;51.458;-0.110;2023-06-22T05:09:03;10.20;;;4.63;;
74614;SDS011;63121;51.458;-0.110;2023-06-22T05:11:30;10.95;;;5.07;;
74614;SDS011;63121;51.458;-0.110;2023-06-22T05:13:55;11.20;;;4.43;;
74614;SDS011;63121;51.458;-0.110;2023-06-22T05:16:21;10.77;;;4.07;;
74614;SDS011;63121;51.458;-0.110;2023-06-22T05:18:52;10.48;;;4.22;;
74614;SDS011;63121;51.458;-0.110;2023-06-22T05:21:24;10.88;;;4.13;;
74614;SDS011;63121;51.458;-0.110;2023-06-22T05:23:51;12.60;;;4.50;;
74614;SDS011;63121;51.458;-0.110;2023-06-22T05:26:18;11.45;;;4.80;;
74614;SDS011;63121;51.458;-0.110;2023-06-22T05:28:47;10.40;;;4.32;;
74614;SDS011;63121;51.458;-0.110;2023-06-22T05:31:16;9.90;;;4.32;;
74614;SDS011;63121;51.458;-0.110;2023-06-22T05:33:42;12.52;;;4.07;;
74614;SDS011;63121;51.458;-0.110;2023-06-22T05:36:09;12.43;;;4.80;;
74614;SDS011;63121;51.458;-0.110;2023-06-22T05:38:35;12.18;;;4.18;;
74614;SDS011;63121;51.458;-0.110;2023-06-22T05:41:00;10.55;;;4.07;;
74614;SDS011;63121;51.458;-0.110;2023-06-22T05:43:26;11.88;;;4.40;;
74614;SDS011;63121;51.458;-0.110;2023-06-22T05:45:51;10.70;;;4.10;;
74614;SDS011;63121;51.458;-0.110;2023-06-22T05:48:17;11.83;;;5.00;;
74614;SDS011;63121;51.458;-0.110;2023-06-22T05:50:42;12.98;;;4.95;;
74614;SDS011;63121;51.458;-0.110;2023-06-22T05:53:07;9.93;;;4.35;;
74614;SDS011;63121;51.458;-0.110;2023-06-22T05:55:33;9.38;;;4.28;;
74614;SDS011;63121;51.458;-0.110;2023-06-22T05:57:58;11.90;;;4.50;;
74614;SDS011;63121;51.458;-0.110;2023-06-22T06:00:24;10.50;;;4.25;;
74614;SDS011;63121;51.458;-0.110;2023-06-22T06:02:49;10.77;;;4.03;;
74614;SDS011;63121;51.458;-0.110;2023-06-22T06:05:15;11.20;;;4.30;;
74614;SDS011;63121;51.458;-0.110;2023-06-22T06:07:41;12.10;;;5.13;;
74614;SDS011;63121;51.458;-0.110;2023-06-22T06:10:07;12.30;;;4.93;;
74614;SDS011;63121;51.458;-0.110;2023-06-22T06:12:33;12.05;;;4.90;;
74614;SDS011;63121;51.458;-0.110;2023-06-22T06:14:58;13.75;;;4.97;;
74614;SDS011;63121;51.458;-0.110;2023-06-22T06:17:24;11.47;;;4.20;;
74614;SDS011;63121;51.458;-0.110;2023-06-22T06:19:49;13.63;;;4.93;;
74614;SDS011;63121;51.458;-0.110;2023-06-22T06:22:15;11.40;;;5.20;;
74614;SDS011;63121;51.458;-0.110;2023-06-22T06:24:40;10.13;;;4.47;;
74614;SDS011;63121;51.458;-0.110;2023-06-22T06:27:05;11.55;;;4.85;;
74614;SDS011;63121;51.458;-0.110;2023-06-22T06:29:33;9.93;;;4.70;;
74614;SDS011;63121;51.458;-0.110;2023-06-22T06:31:59;13.02;;;5.78;;
74614;SDS011;63121;51.458;-0.110;2023-06-22T06:34:24;8.93;;;4.07;;
74614;SDS011;63121;51.458;-0.110;2023-06-22T06:36:50;12.32;;;5.53;;
74614;SDS011;63121;51.458;-0.110;2023-06-22T06:39:15;12.15;;;4.57;;
74614;SDS011;63121;51.458;-0.110;2023-06-22T06:41:41;9.82;;;4.15;;
74614;SDS011;63121;51.458;-0.110;2023-06-22T06:44:06;10.80;;;4.47;;
74614;SDS011;63121;51.458;-0.110;2023-06-22T06:46:32;11.77;;;4.80;;
74614;SDS011;63121;51.458;-0.110;2023-06-22T06:48:57;10.20;;;4.27;;
74614;SDS011;63121;51.458;-0.110;2023-06-22T06:51:23;11.63;;;5.20;;
74614;SDS011;63121;51.458;-0.110;2023-06-22T06:53:48;10.80;;;4.07;;
74614;SDS011;63121;51.458;-0.110;2023-06-22T06:56:13;12.73;;;4.70;;
74614;SDS011;63121;51.458;-0.110;2023-06-22T06:58:42;13.30;;;4.82;;
74614;SDS011;63121;51.458;-0.110;2023-06-22T07:01:07;11.52;;;4.55;;
74614;SDS011;63121;51.458;-0.110;2023-06-22T07:03:33;10.68;;;4.47;;
74614;SDS011;63121;51.458;-0.110;2023-06-22T07:05:59;11.27;;;4.63;;
74614;SDS011;63121;51.458;-0.110;2023-06-22T07:08:24;11.13;;;4.55;;
74614;SDS011;63121;51.458;-0.110;2023-06-22T07:10:50;10.80;;;4.28;;
74614;SDS011;63121;51.458;-0.110;2023-06-22T07:13:17;11.68;;;4.65;;
74614;SDS011;63121;51.458;-0.110;2023-06-22T07:15:42;10.83;;;4.33;;
74614;SDS011;63121;51.458;-0.110;2023-06-22T07:18:07;10.32;;;4.40;;
74614;SDS011;63121;51.458;-0.110;2023-06-22T07:20:33;13.57;;;4.63;;
74614;SDS011;63121;51.458;-0.110;2023-06-22T07:22:58;10.70;;;4.50;;
74614;SDS011;63121;51.458;-0.110;2023-06-22T07:25:23;13.05;;;5.68;;
74614;SDS011;63121;51.458;-0.110;2023-06-22T07:27:59;16.08;;;6.32;;
74614;SDS011;63121;51.458;-0.110;2023-06-22T07:30:27;10.82;;;5.00;;
74614;SDS011;63121;51.458;-0.110;2023-06-22T07:32:52;14.82;;;5.28;;
74614;SDS011;63121;51.458;-0.110;2023-06-22T07:35:18;12.63;;;4.80;;
74614;SDS011;63121;51.458;-0.110;2023-06-22T07:37:43;9.70;;;4.27;;
74614;SDS011;63121;51.458;-0.110;2023-06-22T07:40:09;10.85;;;4.82;;
74614;SDS011;63121;51.458;-0.110;2023-06-22T07:42:34;15.23;;;5.70;;
74614;SDS011;63121;51.458;-0.110;2023-06-22T07:45:00;13.02;;;5.28;;
74614;SDS011;63121;51.458;-0.110;2023-06-22T07:47:27;13.15;;;5.35;;
74614;SDS011;63121;51.458;-0.110;2023-06-22T07:49:53;12.13;;;5.07;;
74614;SDS011;63121;51.458;-0.110;2023-06-22T07:52:20;11.88;;;5.45;;
74614;SDS011;63121;51.458;-0.110;2023-06-22T07:54:46;13.10;;;5.00;;
74614;SDS011;63121;51.458;-0.110;2023-06-22T07:57:11;12.75;;;5.50;;
74614;SDS011;63121;51.458;-0.110;2023-06-22T07:59:37;11.95;;;4.72;;
74614;SDS011;63121;51.458;-0.110;2023-06-22T08:02:03;12.65;;;5.22;;
74614;SDS011;63121;51.458;-0.110;2023-06-22T08:06:56;13.30;;;5.60;;
74614;SDS011;63121;51.458;-0.110;2023-06-22T08:09:22;12.30;;;5.47;;
74614;SDS011;63121;51.458;-0.110;2023-06-22T08:11:47;13.73;;;5.18;;
74614;SDS011;63121;51.458;-0.110;2023-06-22T08:14:13;10.85;;;4.88;;
74614;SDS011;63121;51.458;-0.110;2023-06-22T08:16:39;10.85;;;5.30;;
74614;SDS011;63121;51.458;-0.110;2023-06-22T08:19:06;12.82;;;6.00;;
74614;SDS011;63121;51.458;-0.110;2023-06-22T08:21:32;16.23;;;6.18;;
74614;SDS011;63121;51.458;-0.110;2023-06-22T08:23:57;12.40;;;5.40;;
74614;SDS011;63121;51.458;-0.110;2023-06-22T08:26:22;11.85;;;5.32;;
74614;SDS011;63121;51.458;-0.110;2023-06-22T08:28:48;12.50;;;4.95;;
74614;SDS011;63121;51.458;-0.110;2023-06-22T08:31:14;13.18;;;5.50;;
74614;SDS011;63121;51.458;-0.110;2023-06-22T08:33:39;13.35;;;5.50;;
74614;SDS011;63121;51.458;-0.110;2023-06-22T08:36:05;11.20;;;5.18;;
74614;SDS011;63121;51.458;-0.110;2023-06-22T08:38:31;14.20;;;5.18;;
74614;SDS011;63121;51.458;-0.110;2023-06-22T08:40:57;11.13;;;5.60;;
74614;SDS011;63121;51.458;-0.110;2023-06-22T08:43:22;12.80;;;5.30;;
74614;SDS011;63121;51.458;-0.110;2023-06-22T08:45:47;12.15;;;4.85;;
74614;SDS011;63121;51.458;-0.110;2023-06-22T08:48:13;11.77;;;4.72;;
74614;SDS011;63121;51.458;-0.110;2023-06-22T08:50:39;11.15;;;4.70;;
74614;SDS011;63121;51.458;-0.110;2023-06-22T08:53:05;12.25;;;5.22;;
74614;SDS011;63121;51.458;-0.110;2023-06-22T08:55:31;10.93;;;4.60;;
74614;SDS011;63121;51.458;-0.110;2023-06-22T08:57:56;11.68;;;4.60;;
74614;SDS011;63121;51.458;-0.110;2023-06-22T09:00:22;12.98;;;4.60;;
74614;SDS011;63121;51.458;-0.110;2023-06-22T09:02:47;10.55;;;4.65;;
74614;SDS011;63121;51.458;-0.110;2023-06-22T09:05:13;11.02;;;4.55;;
74614;SDS011;63121;51.458;-0.110;2023-06-22T09:07:39;13.20;;;4.70;;
74614;SDS011;63121;51.458;-0.110;2023-06-22T09:10:05;10.48;;;4.70;;
74614;SDS011;63121;51.458;-0.110;2023-06-22T09:12:31;12.55;;;5.10;;
74614;SDS011;63121;51.458;-0.110;2023-06-22T09:14:57;11.88;;;4.30;;
74614;SDS011;63121;51.458;-0.110;2023-06-22T09:17:25;11.90;;;4.55;;
74614;SDS011;63121;51.458;-0.110;2023-06-22T09:19:50;11.40;;;4.90;;
74614;SDS011;63121;51.458;-0.110;2023-06-22T09:22:16;11.20;;;4.75;;
74614;SDS011;63121;51.458;-0.110;2023-06-22T09:24:41;9.15;;;3.75;;
74614;SDS011;63121;51.458;-0.110;2023-06-22T09:27:07;10.17;;;4.07;;
74614;SDS011;63121;51.458;-0.110;2023-06-22T09:29:32;9.55;;;3.53;;
74614;SDS011;63121;51.458;-0.110;2023-06-22T09:31:59;12.25;;;4.13;;
74614;SDS011;63121;51.458;-0.110;2023-06-22T09:34:25;10.52;;;4.07;;
74614;SDS011;63121;51.458;-0.110;2023-06-22T09:36:51;9.85;;;4.03;;
74614;SDS011;63121;51.458;-0.110;2023-06-22T09:39:17;9.93;;;4.28;;
74614;SDS011;63121;51.458;-0.110;2023-06-22T09:41:43;10.13;;;3.72;;
74614;SDS011;63121;51.458;-0.110;2023-06-22T09:44:08;10.80;;;4.30;;
74614;SDS011;63121;51.458;-0.110;2023-06-22T09:46:34;11.13;;;4.68;;
74614;SDS011;63121;51.458;-0.110;2023-06-22T09:48:59;14.60;;;4.70;;
74614;SDS011;63121;51.458;-0.110;2023-06-22T09:51:24;8.77;;;3.97;;
74614;SDS011;63121;51.458;-0.110;2023-06-22T09:53:50;11.05;;;4.50;;
74614;SDS011;63121;51.458;-0.110;2023-06-22T09:56:16;11.15;;;4.65;;
74614;SDS011;63121;51.458;-0.110;2023-06-22T09:58:42;10.10;;;3.90;;
74614;SDS011;63121;51.458;-0.110;2023-06-22T10:01:08;9.50;;;3.38;;
74614;SDS011;63121;51.458;-0.110;2023-06-22T10:03:33;9.27;;;3.80;;
74614;SDS011;63121;51.458;-0.110;2023-06-22T10:05:58;14.40;;;3.97;;
74614;SDS011;63121;51.458;-0.110;2023-06-22T10:08:24;9.60;;;3.35;;
74614;SDS011;63121;51.458;-0.110;2023-06-22T10:10:49;9.93;;;3.08;;
74614;SDS011;63121;51.458;-0.110;2023-06-22T10:13:15;7.65;;;3.08;;
74614;SDS011;63121;51.458;-0.110;2023-06-22T10:15:41;8.50;;;3.10;;
74614;SDS011;63121;51.458;-0.110;2023-06-22T10:18:07;7.30;;;2.90;;
74614;SDS011;63121;51.458;-0.110;2023-06-22T10:20:33;8.85;;;2.50;;
74614;SDS011;63121;51.458;-0.110;2023-06-22T10:22:58;7.35;;;2.90;;
74614;SDS011;63121;51.458;-0.110;2023-06-22T10:25:23;8.18;;;2.95;;
74614;SDS011;63121;51.458;-0.110;2023-06-22T10:27:50;8.10;;;2.83;;
74614;SDS011;63121;51.458;-0.110;2023-06-22T10:32:42;7.80;;;2.65;;
74614;SDS011;63121;51.458;-0.110;2023-06-22T10:35:08;8.77;;;3.58;;
74614;SDS011;63121;51.458;-0.110;2023-06-22T10:37:35;9.77;;;3.25;;
74614;SDS011;63121;51.458;-0.110;2023-06-22T10:40:01;7.82;;;2.88;;
74614;SDS011;63121;51.458;-0.110;2023-06-22T10:42:26;8.05;;;2.60;;
74614;SDS011;63121;51.458;-0.110;2023-06-22T10:44:52;6.83;;;2.70;;
74614;SDS011;63121;51.458;-0.110;2023-06-22T10:47:17;9.37;;;2.73;;
74614;SDS011;63121;51.458;-0.110;2023-06-22T10:49:42;6.73;;;2.43;;
74614;SDS011;63121;51.458;-0.110;2023-06-22T10:52:08;7.33;;;2.83;;
74614;SDS011;63121;51.458;-0.110;2023-06-22T10:54:34;8.07;;;3.00;;
74614;SDS011;63121;51.458;-0.110;2023-06-22T10:57:00;9.13;;;2.83;;
74614;SDS011;63121;51.458;-0.110;2023-06-22T10:59:27;7.60;;;2.90;;
74614;SDS011;63121;51.458;-0.110;2023-06-22T11:01:53;9.02;;;3.05;;
74614;SDS011;63121;51.458;-0.110;2023-06-22T11:04:19;7.32;;;2.90;;
74614;SDS011;63121;51.458;-0.110;2023-06-22T11:06:45;9.20;;;2.60;;
74614;SDS011;63121;51.458;-0.110;2023-06-22T11:09:10;7.10;;;2.90;;
74614;SDS011;63121;51.458;-0.110;2023-06-22T11:11:35;7.70;;;2.40;;
74614;SDS011;63121;51.458;-0.110;2023-06-22T11:14:01;9.57;;;3.10;;
74614;SDS011;63121;51.458;-0.110;2023-06-22T11:16:26;7.15;;;2.65;;
74614;SDS011;63121;51.458;-0.110;2023-06-22T11:18:52;6.93;;;2.42;;
74614;SDS011;63121;51.458;-0.110;2023-06-22T11:21:17;10.40;;;2.70;;
74614;SDS011;63121;51.458;-0.110;2023-06-22T11:23:43;7.57;;;2.80;;
74614;SDS011;63121;51.458;-0.110;2023-06-22T11:26:08;7.10;;;2.25;;
74614;SDS011;63121;51.458;-0.110;2023-06-22T11:28:33;7.00;;;2.50;;
74614;SDS011;63121;51.458;-0.110;2023-06-22T11:30:59;6.23;;;2.20;;
74614;SDS011;63121;51.458;-0.110;2023-06-22T11:33:24;6.82;;;2.30;;
74614;SDS011;63121;51.458;-0.110;2023-06-22T11:35:49;7.10;;;2.40;;
74614;SDS011;63121;51.458;-0.110;2023-06-22T11:38:15;7.30;;;2.33;;
74614;SDS011;63121;51.458;-0.110;2023-06-22T11:40:40;6.63;;;2.47;;
74614;SDS011;63121;51.458;-0.110;2023-06-22T11:43:06;7.35;;;2.58;;
74614;SDS011;63121;51.458;-0.110;2023-06-22T11:45:31;7.88;;;2.80;;
74614;SDS011;63121;51.458;-0.110;2023-06-22T11:47:56;6.82;;;2.55;;
74614;SDS011;63121;51.458;-0.110;2023-06-22T11:50:22;9.50;;;2.80;;
74614;SDS011;63121;51.458;-0.110;2023-06-22T11:52:47;7.05;;;2.78;;
74614;SDS011;63121;51.458;-0.110;2023-06-22T11:55:12;7.50;;;2.87;;
74614;SDS011;63121;51.458;-0.110;2023-06-22T11:57:38;6.60;;;2.35;;
74614;SDS011;63121;51.458;-0.110;2023-06-22T12:00:16;6.60;;;2.45;;
74614;SDS011;63121;51.458;-0.110;2023-06-22T12:05:09;7.07;;;2.30;;
74614;SDS011;63121;51.458;-0.110;2023-06-22T12:07:35;6.40;;;2.20;;
74614;SDS011;63121;51.458;-0.110;2023-06-22T12:10:01;6.75;;;2.60;;
74614;SDS011;63121;51.458;-0.110;2023-06-22T12:12:27;8.68;;;2.78;;
74614;SDS011;63121;51.458;-0.110;2023-06-22T12:14:52;5.87;;;2.03;;
74614;SDS011;63121;51.458;-0.110;2023-06-22T12:17:17;8.00;;;2.33;;
74614;SDS011;63121;51.458;-0.110;2023-06-22T12:19:43;8.37;;;2.40;;
74614;SDS011;63121;51.458;-0.110;2023-06-22T12:22:08;6.82;;;2.47;;
74614;SDS011;63121;51.458;-0.110;2023-06-22T12:24:33;6.33;;;2.37;;
74614;SDS011;63121;51.458;-0.110;2023-06-22T12:26:59;5.85;;;2.25;;
74614;SDS011;63121;51.458;-0.110;2023-06-22T12:29:24;5.47;;;2.30;;
74614;SDS011;63121;51.458;-0.110;2023-06-22T12:31:49;6.80;;;2.40;;
74614;SDS011;63121;51.458;-0.110;2023-06-22T12:34:15;7.20;;;2.40;;
74614;SDS011;63121;51.458;-0.110;2023-06-22T12:36:40;6.93;;;2.70;;
74614;SDS011;63121;51.458;-0.110;2023-06-22T12:39:05;6.20;;;2.33;;
74614;SDS011;63121;51.458;-0.110;2023-06-22T12:41:31;6.18;;;2.42;;
74614;SDS011;63121;51.458;-0.110;2023-06-22T12:43:57;6.78;;;2.28;;
74614;SDS011;63121;51.458;-0.110;2023-06-22T12:46:22;5.60;;;1.80;;
74614;SDS011;63121;51.458;-0.110;2023-06-22T12:48:47;6.60;;;2.50;;
74614;SDS011;63121;51.458;-0.110;2023-06-22T12:51:19;7.17;;;2.07;;
74614;SDS011;63121;51.458;-0.110;2023-06-22T12:53:45;7.57;;;2.28;;
74614;SDS011;63121;51.458;-0.110;2023-06-22T12:56:11;8.27;;;2.28;;
74614;SDS011;63121;51.458;-0.110;2023-06-22T12:58:36;6.33;;;2.30;;
74614;SDS011;63121;51.458;-0.110;2023-06-22T13:01:01;9.27;;;2.33;;
74614;SDS011;63121;51.458;-0.110;2023-06-22T13:03:27;6.43;;;2.33;;
74614;SDS011;63121;51.458;-0.110;2023-06-22T13:05:53;5.40;;;2.05;;
74614;SDS011;63121;51.458;-0.110;2023-06-22T13:08:18;5.90;;;2.25;;
74614;SDS011;63121;51.458;-0.110;2023-06-22T13:10:44;6.13;;;2.13;;
74614;SDS011;63121;51.458;-0.110;2023-06-22T13:13:09;7.00;;;2.07;;
74614;SDS011;63121;51.458;-0.110;2023-06-22T13:15:34;7.40;;;2.10;;
74614;SDS011;63121;51.458;-0.110;2023-06-22T13:18:00;7.27;;;2.30;;
74614;SDS011;63121;51.458;-0.110;2023-06-22T13:20:25;6.73;;;2.40;;
74614;SDS011;63121;51.458;-0.110;2023-06-22T13:22:50;6.97;;;2.38;;
74614;SDS011;63121;51.458;-0.110;2023-06-22T13:25:16;7.40;;;2.60;;
74614;SDS011;63121;51.458;-0.110;2023-06-22T13:27:44;6.82;;;2.22;;
74614;SDS011;63121;51.458;-0.110;2023-06-22T13:30:10;5.97;;;1.92;;
74614;SDS011;63121;51.458;-0.110;2023-06-22T13:32:35;5.70;;;2.20;;
74614;SDS011;63121;51.458;-0.110;2023-06-22T13:35:01;6.53;;;2.20;;
74614;SDS011;63121;51.458;-0.110;2023-06-22T13:37:26;6.68;;;2.10;;
74614;SDS011;63121;51.458;-0.110;2023-06-22T13:39:52;6.82;;;2.20;;
74614;SDS011;63121;51.458;-0.110;2023-06-22T13:42:17;6.60;;;2.40;;
74614;SDS011;63121;51.458;-0.110;2023-06-22T13:44:43;6.38;;;2.30;;
74614;SDS011;63121;51.458;-0.110;2023-06-22T13:47:08;6.43;;;2.40;;
74614;SDS011;63121;51.458;-0.110;2023-06-22T13:49:34;6.43;;;2.45;;
74614;SDS011;63121;51.458;-0.110;2023-06-22T13:51:59;6.05;;;2.47;;
74614;SDS011;63121;51.458;-0.110;2023-06-22T13:54:25;7.20;;;2.40;;
74614;SDS011;63121;51.458;-0.110;2023-06-22T13:56:50;7.22;;;2.13;;
74614;SDS011;63121;51.458;-0.110;2023-06-22T13:59:16;8.13;;;2.58;;
74614;SDS011;63121;51.458;-0.110;2023-06-22T14:01:41;7.30;;;2.80;;
74614;SDS011;63121;51.458;-0.110;2023-06-22T14:04:08;7.03;;;2.13;;
74614;SDS011;63121;51.458;-0.110;2023-06-22T14:06:33;7.32;;;2.47;;
74614;SDS011;63121;51.458;-0.110;2023-06-22T14:08:58;6.40;;;2.27;;
74614;SDS011;63121;51.458;-0.110;2023-06-22T14:11:24;6.10;;;2.30;;
74614;SDS011;63121;51.458;-0.110;2023-06-22T14:13:49;7.43;;;2.53;;
74614;SDS011;63121;51.458;-0.110;2023-06-22T14:16:15;6.95;;;2.58;;
74614;SDS011;63121;51.458;-0.110;2023-06-22T14:18:40;6.05;;;2.35;;
74614;SDS011;63121;51.458;-0.110;2023-06-22T14:21:06;7.40;;;2.30;;
74614;SDS011;63121;51.458;-0.110;2023-06-22T14:23:32;5.72;;;2.22;;
74614;SDS011;63121;51.458;-0.110;2023-06-22T14:25:57;6.22;;;2.10;;
74614;SDS011;63121;51.458;-0.110;2023-06-22T14:28:22;5.63;;;2.00;;
74614;SDS011;63121;51.458;-0.110;2023-06-22T14:30:48;7.03;;;2.20;;
74614;SDS011;63121;51.458;-0.110;2023-06-22T14:33:13;6.90;;;2.20;;
74614;SDS011;63121;51.458;-0.110;2023-06-22T14:35:38;6.97;;;2.05;;
74614;SDS011;63121;51.458;-0.110;2023-06-22T14:38:04;6.10;;;2.30;;
74614;SDS011;63121;51.458;-0.110;2023-06-22T14:40:29;5.68;;;2.38;;